Lydia, Louisiana
Current Conditions -  °F | °C
As of 1:53 PM on Saturday 25 Oct 2014 (Local Time) from KARA Reporting Station
Clear Clear  
Wind Chill: 82°   Ceiling: Unl
Heat Index: 82°   Visibility: 10mi
Dew Point: 52°   Wind: 8mph
Humidity: 35%   Direction: 60°ENE
Pressure: 30.12"   Gusts: NA
Location:  29.92°N, 91.78°W
Report Text: KARA 251853Z 06007KT 10SM CLR 28/11 A3012 RMK AO2 SLP199 T02780111 $
Loading
Personal Weather Stations






























Interactive Weather Map
Tropical Storm Tracking
New forecast layout! Learn more

10-Day Weather Forecast

Advertisements
Track Severe Weather on mobile